Time;durP1;ratioP1;P1;durP2;ratioP2;P2;SDS_P1;SDS_P2;PMS_P1;PMS_P2;Temp;Humidity;BMP_temperature;BMP_pressure;BME280_temperature;BME280_humidity;BME280_pressure;Samples;Min_cycle;Max_cycle;Signal;HPM_P1;HPM_P2
2021/04/05 00:00:04;;;;;;;12.82;6.95;;;7.60;80.20;;;;;;5093968;28;20296;-67
2021/04/05 00:02:31;;;;;;;8.80;6.70;;;7.80;79.30;;;;;;5093854;28;20198;-67
2021/04/05 00:04:57;;;;;;;8.07;6.53;;;7.80;78.60;;;;;;5093500;28;20710;-67
2021/04/05 00:07:23;;;;;;;9.32;7.18;;;7.80;78.30;;;;;;5093399;28;20228;-66
2021/04/05 00:09:50;;;;;;;7.60;6.15;;;7.80;78.50;;;;;;5093613;28;20250;-67
2021/04/05 00:12:16;;;;;;;9.75;6.50;;;7.70;78.90;;;;;;5093996;28;20293;-66
2021/04/05 00:14:43;;;;;;;8.13;6.43;;;7.70;79.70;;;;;;5093531;28;20236;-67
2021/04/05 00:17:11;;;;;;;13.48;6.82;;;7.70;79.40;;;;;;5093276;28;20278;-67
2021/04/05 00:19:39;;;;;;;8.48;5.90;;;7.50;79.10;;;;;;5093465;28;20729;-67
2021/04/05 00:22:06;;;;;;;11.70;5.90;;;7.30;79.40;;;;;;5093647;28;20206;-67
2021/04/05 00:24:32;;;;;;;6.55;5.40;;;7.30;80.20;;;;;;5093397;28;20701;-67
2021/04/05 00:26:59;;;;;;;9.88;5.57;;;7.40;80.20;;;;;;5093477;28;20316;-66
2021/04/05 00:29:25;;;;;;;11.95;5.72;;;7.50;80.10;;;;;;5093528;28;20292;-67
2021/04/05 00:31:51;;;;;;;12.27;4.90;;;7.40;79.90;;;;;;5093481;28;20206;-67
2021/04/05 00:34:19;;;;;;;9.40;5.72;;;7.50;80.10;;;;;;5093513;28;20206;-66
2021/04/05 00:36:45;;;;;;;6.95;4.95;;;7.30;79.90;;;;;;5093372;28;20217;-66
2021/04/05 00:39:12;;;;;;;7.97;5.25;;;7.20;80.10;;;;;;5093589;28;20205;-67
2021/04/05 00:41:39;;;;;;;16.50;6.82;;;7.20;80.50;;;;;;5093247;28;20285;-67
2021/04/05 00:44:06;;;;;;;10.98;6.53;;;7.10;81.10;;;;;;5097193;28;20214;-67
2021/04/05 00:46:33;;;;;;;7.88;5.38;;;7.20;82.00;;;;;;5096993;28;20714;-66
2021/04/05 00:49:00;;;;;;;6.75;5.05;;;7.30;81.50;;;;;;5097456;28;20258;-66
2021/04/05 00:51:27;;;;;;;13.13;5.88;;;7.40;80.20;;;;;;5097456;28;20205;-66
2021/04/05 00:53:54;;;;;;;7.90;4.55;;;7.60;79.30;;;;;;5097256;28;20297;-66
2021/04/05 00:56:24;;;;;;;9.15;5.40;;;7.70;78.80;;;;;;5096893;28;20217;-66
2021/04/05 00:58:51;;;;;;;8.82;5.78;;;7.80;78.50;;;;;;5097224;28;20630;-66
2021/04/05 01:01:20;;;;;;;8.68;5.05;;;7.80;79.60;;;;;;5097223;28;20732;-67
2021/04/05 01:03:48;;;;;;;10.07;5.18;;;7.80;78.90;;;;;;5096996;28;20739;-66
2021/04/05 01:06:17;;;;;;;7.70;4.80;;;7.80;78.20;;;;;;5096714;28;20226;-66
2021/04/05 01:08:44;;;;;;;6.70;4.78;;;7.80;77.70;;;;;;5096987;28;20202;-67
2021/04/05 01:11:12;;;;;;;6.18;4.93;;;7.90;77.50;;;;;;5096950;28;20621;-66
2021/04/05 01:13:39;;;;;;;7.40;4.70;;;8.00;77.00;;;;;;5096737;28;20198;-66
2021/04/05 01:16:06;;;;;;;8.38;4.78;;;8.10;76.60;;;;;;5096748;28;20214;-66
2021/04/05 01:18:32;;;;;;;10.40;4.50;;;8.10;76.00;;;;;;5096892;28;20202;-67
2021/04/05 01:20:59;;;;;;;6.88;4.45;;;8.20;75.30;;;;;;5096856;28;20236;-66
2021/04/05 01:23:26;;;;;;;9.25;4.90;;;8.30;75.10;;;;;;5096811;28;20198;-67
2021/04/05 01:25:53;;;;;;;7.45;4.35;;;8.30;74.50;;;;;;5096569;28;20791;-67
2021/04/05 01:28:19;;;;;;;4.88;3.97;;;8.40;74.50;;;;;;5096359;28;20673;-66
2021/04/05 01:30:48;;;;;;;5.70;4.53;;;8.50;74.20;;;;;;5096694;28;20285;-67
2021/04/05 01:33:18;;;;;;;8.85;4.30;;;8.50;74.00;;;;;;5096617;28;20198;-67
2021/04/05 01:35:48;;;;;;;7.55;4.30;;;8.50;74.00;;;;;;5096487;28;20224;-67
2021/04/05 01:38:17;;;;;;;6.78;4.30;;;8.50;74.40;;;;;;5096358;28;20210;-67
2021/04/05 01:40:47;;;;;;;5.60;4.22;;;8.50;74.10;;;;;;5096458;28;20209;-67
2021/04/05 01:43:14;;;;;;;5.90;3.75;;;8.50;73.90;;;;;;5096263;28;20751;-67
2021/04/05 01:45:41;;;;;;;5.63;4.43;;;8.50;74.20;;;;;;5096025;28;20688;-67
2021/04/05 01:48:09;;;;;;;6.07;4.32;;;8.50;74.60;;;;;;5096216;28;20309;-66
2021/04/05 01:50:36;;;;;;;7.93;4.72;;;8.40;74.60;;;;;;5096381;28;20707;-67
2021/04/05 01:53:05;;;;;;;10.95;4.28;;;8.40;74.40;;;;;;5095937;28;20202;-66
2021/04/05 01:55:32;;;;;;;8.65;4.35;;;8.40;74.80;;;;;;5095277;28;20237;-67
2021/04/05 01:58:00;;;;;;;6.05;4.40;;;8.40;74.50;;;;;;5095745;28;20202;-67
2021/04/05 02:00:28;;;;;;;8.35;4.50;;;8.40;73.90;;;;;;5095957;28;20198;-67
2021/04/05 02:02:55;;;;;;;7.32;4.70;;;8.50;73.80;;;;;;5096084;28;20570;-66
2021/04/05 02:05:26;;;;;;;5.53;4.43;;;8.50;74.40;;;;;;5095762;28;20232;-66
2021/04/05 02:07:52;;;;;;;5.95;4.10;;;8.40;75.00;;;;;;5095848;28;20205;-66
2021/04/05 02:10:21;;;;;;;6.78;4.30;;;8.40;74.70;;;;;;5095987;28;20206;-67
2021/04/05 02:12:48;;;;;;;7.10;4.80;;;8.40;74.60;;;;;;5095895;28;20232;-67
2021/04/05 02:15:17;;;;;;;8.25;4.55;;;8.30;75.10;;;;;;5095546;28;20738;-67
2021/04/05 02:17:45;;;;;;;5.20;4.50;;;8.30;75.20;;;;;;5095576;28;20289;-66
2021/04/05 02:20:14;;;;;;;6.65;4.40;;;8.20;75.90;;;;;;5095724;28;20218;-67
2021/04/05 02:22:42;;;;;;;10.57;5.47;;;7.80;76.20;;;;;;5095688;28;20279;-66
2021/04/05 02:25:12;;;;;;;8.65;5.45;;;7.60;77.30;;;;;;5095431;28;20228;-67
2021/04/05 02:27:39;;;;;;;6.65;4.82;;;7.40;78.60;;;;;;5095363;28;20222;-66
2021/04/05 02:30:08;;;;;;;7.05;4.38;;;7.20;79.50;;;;;;5095254;28;20210;-66
2021/04/05 02:32:37;;;;;;;10.02;5.68;;;7.00;80.80;;;;;;5095460;28;20617;-66
2021/04/05 02:35:04;;;;;;;6.90;4.57;;;6.90;83.40;;;;;;5095815;28;20202;-66
2021/04/05 02:37:31;;;;;;;8.43;5.00;;;6.70;83.60;;;;;;5095158;28;20232;-66
2021/04/05 02:39:57;;;;;;;8.30;4.53;;;6.50;84.60;;;;;;5095154;28;20664;-66
2021/04/05 02:42:23;;;;;;;11.93;5.75;;;6.40;86.40;;;;;;5095334;28;20251;-66
2021/04/05 02:44:50;;;;;;;10.93;5.65;;;6.40;87.20;;;;;;5094870;28;20226;-66
2021/04/05 02:47:16;;;;;;;11.77;5.45;;;6.40;88.80;;;;;;5094950;28;20591;-66
2021/04/05 02:49:45;;;;;;;7.68;5.65;;;6.40;89.00;;;;;;5095194;28;20198;-66
2021/04/05 02:52:12;;;;;;;9.88;5.90;;;6.60;88.50;;;;;;5094855;28;20676;-67
2021/04/05 02:54:38;;;;;;;7.85;5.18;;;6.80;87.60;;;;;;5095092;28;20204;-66
2021/04/05 02:57:06;;;;;;;8.45;5.00;;;6.80;87.20;;;;;;5094603;28;20318;-66
2021/04/05 02:59:32;;;;;;;8.07;5.72;;;7.00;86.60;;;;;;5094860;28;20202;-67
2021/04/05 03:02:00;;;;;;;10.85;5.35;;;7.00;86.50;;;;;;5095008;28;20228;-66
2021/04/05 03:04:26;;;;;;;7.00;5.18;;;6.90;86.30;;;;;;5094754;28;20576;-67
2021/04/05 03:06:54;;;;;;;7.30;4.90;;;6.70;86.70;;;;;;5094393;28;20229;-66
2021/04/05 03:09:21;;;;;;;7.90;4.90;;;6.60;87.40;;;;;;5094650;28;20318;-67
2021/04/05 03:11:49;;;;;;;8.52;4.72;;;6.50;88.10;;;;;;5094581;28;20217;-66
2021/04/05 03:14:16;;;;;;;6.18;4.72;;;6.40;88.70;;;;;;5094495;28;20202;-66
2021/04/05 03:16:44;;;;;;;8.57;5.65;;;6.20;89.80;;;;;;5094107;28;20224;-66
2021/04/05 03:19:13;;;;;;;7.78;5.65;;;6.30;90.20;;;;;;5094296;28;20202;-66
2021/04/05 03:21:42;;;;;;;6.00;4.90;;;6.50;90.10;;;;;;5094606;28;20589;-66
2021/04/05 03:24:11;;;;;;;7.13;4.68;;;6.50;89.80;;;;;;5094404;28;20667;-67
2021/04/05 03:26:37;;;;;;;8.43;5.05;;;6.50;89.80;;;;;;5094078;28;20222;-66
2021/04/05 03:29:07;;;;;;;6.97;4.63;;;6.30;90.00;;;;;;5094121;28;20671;-67
2021/04/05 03:31:37;;;;;;;7.40;4.85;;;6.50;90.20;;;;;;5094383;28;20205;-66
2021/04/05 03:34:10;;;;;;;7.57;5.15;;;6.50;90.00;;;;;;5094336;28;20212;-66
2021/04/05 03:36:41;;;;;;;8.05;5.03;;;6.60;89.90;;;;;;5094146;28;20296;-66
2021/04/05 03:39:10;;;;;;;7.93;5.05;;;6.60;90.00;;;;;;5093982;28;20277;-66
2021/04/05 03:41:42;;;;;;;8.20;5.40;;;6.60;90.10;;;;;;5094215;28;20600;-67
2021/04/05 03:44:17;;;;;;;8.30;4.95;;;6.40;90.40;;;;;;5094053;28;20210;-66
2021/04/05 03:46:46;;;;;;;7.15;5.13;;;6.20;91.00;;;;;;5093975;28;20218;-66
2021/04/05 03:49:21;;;;;;;7.53;5.63;;;6.00;91.40;;;;;;5094074;28;20206;-67
2021/04/05 03:51:51;;;;;;;10.95;6.05;;;5.90;91.90;;;;;;5094024;28;20210;-66
2021/04/05 03:54:22;;;;;;;8.63;5.88;;;5.80;92.40;;;;;;5094046;28;20202;-66
2021/04/05 03:56:52;;;;;;;7.32;5.68;;;5.80;92.90;;;;;;5093835;28;20226;-66
2021/04/05 03:59:24;;;;;;;10.70;6.03;;;5.90;93.00;;;;;;5093805;28;20660;-66
2021/04/05 04:01:54;;;;;;;10.77;6.05;;;5.90;93.30;;;;;;5093985;28;20542;-66
2021/04/05 04:04:27;;;;;;;9.48;5.72;;;6.00;93.40;;;;;;5093813;28;20617;-66
2021/04/05 04:07:00;;;;;;;8.00;5.35;;;6.00;92.90;;;;;;5093371;28;20222;-66
2021/04/05 04:09:31;;;;;;;9.30;5.43;;;6.10;93.00;;;;;;5094077;28;20637;-66
2021/04/05 04:11:58;;;;;;;8.77;5.10;;;6.10;93.00;;;;;;5093840;28;20630;-66
2021/04/05 04:14:26;;;;;;;9.38;6.13;;;6.20;93.00;;;;;;5093715;28;20202;-66
2021/04/05 04:16:53;;;;;;;8.35;5.18;;;6.20;92.90;;;;;;5092598;28;20317;-66
2021/04/05 04:19:21;;;;;;;7.97;5.07;;;6.30;92.80;;;;;;5093753;28;20202;-67
2021/04/05 04:21:49;;;;;;;11.48;6.28;;;6.30;92.80;;;;;;5093755;28;20293;-66
2021/04/05 04:24:17;;;;;;;12.02;4.70;;;6.20;92.90;;;;;;5093662;28;20202;-66
2021/04/05 04:26:44;;;;;;;9.38;5.22;;;6.30;92.70;;;;;;5093217;28;20242;-66
2021/04/05 04:29:18;;;;;;;7.45;5.07;;;6.30;92.70;;;;;;5093519;28;20296;-66
2021/04/05 04:31:45;;;;;;;9.18;5.22;;;6.10;93.00;;;;;;5093636;28;20233;-66
2021/04/05 04:34:14;;;;;;;9.77;5.75;;;5.90;93.50;;;;;;5093415;28;20206;-66
2021/04/05 04:36:41;;;;;;;13.80;5.57;;;5.80;94.00;;;;;;5093088;28;20707;-66
2021/04/05 04:39:07;;;;;;;9.93;6.70;;;5.80;94.30;;;;;;5093328;28;20198;-66
2021/04/05 04:41:34;;;;;;;10.82;5.75;;;5.70;94.40;;;;;;5093545;28;20296;-66
2021/04/05 04:44:03;;;;;;;14.27;5.65;;;5.50;94.90;;;;;;5093125;28;20305;-66
2021/04/05 04:46:31;;;;;;;9.05;4.80;;;5.50;95.50;;;;;;5093286;28;20232;-66
2021/04/05 04:48:59;;;;;;;6.90;4.00;;;5.40;95.80;;;;;;5093536;28;20208;-66
2021/04/05 04:51:25;;;;;;;7.05;4.32;;;5.50;95.80;;;;;;5093592;28;20198;-66
2021/04/05 04:53:54;;;;;;;8.50;4.45;;;5.60;95.40;;;;;;5093460;28;20202;-66
2021/04/05 04:56:20;;;;;;;8.70;4.80;;;5.80;94.50;;;;;;5093159;28;20218;-66
2021/04/05 04:58:47;;;;;;;6.90;4.82;;;5.90;94.20;;;;;;5093392;28;20289;-66
2021/04/05 05:01:16;;;;;;;8.05;4.70;;;6.00;93.60;;;;;;5093403;28;20328;-66
2021/04/05 05:03:47;;;;;;;8.70;4.93;;;6.20;93.60;;;;;;5093358;28;20202;-66
2021/04/05 05:06:14;;;;;;;6.38;3.92;;;6.30;92.80;;;;;;5093061;28;20653;-66
2021/04/05 05:08:42;;;;;;;11.98;5.18;;;6.40;92.60;;;;;;5093186;28;20202;-66
2021/04/05 05:11:08;;;;;;;7.95;4.80;;;6.60;91.10;;;;;;5092963;28;20677;-67
2021/04/05 05:13:35;;;;;;;6.72;4.57;;;6.70;90.60;;;;;;5093177;28;20202;-67
2021/04/05 05:16:05;;;;;;;8.23;5.30;;;6.90;90.10;;;;;;5092724;28;20715;-67
2021/04/05 05:18:33;;;;;;;7.57;5.63;;;7.00;90.50;;;;;;5093069;28;20212;-67
2021/04/05 05:21:01;;;;;;;6.93;4.53;;;7.00;90.50;;;;;;5093142;28;20292;-67
2021/04/05 05:23:29;;;;;;;6.47;4.60;;;7.00;90.30;;;;;;5093077;28;20206;-67
2021/04/05 05:25:56;;;;;;;6.40;4.55;;;7.10;90.10;;;;;;5092570;28;20762;-66
2021/04/05 05:28:24;;;;;;;6.78;4.78;;;7.10;90.30;;;;;;5094041;28;20205;-66
2021/04/05 05:30:51;;;;;;;6.50;3.95;;;7.10;90.20;;;;;;5096735;28;20202;-67
2021/04/05 05:33:20;;;;;;;9.13;4.22;;;7.10;89.10;;;;;;5096619;28;20202;-66
2021/04/05 05:35:50;;;;;;;6.95;4.47;;;7.20;90.10;;;;;;5096516;28;20218;-67
2021/04/05 05:38:16;;;;;;;6.93;4.25;;;7.20;89.00;;;;;;5096152;28;20206;-67
2021/04/05 05:40:46;;;;;;;6.85;4.15;;;7.10;89.90;;;;;;5096530;28;20204;-67
2021/04/05 05:43:26;;;;;;;5.88;4.25;;;7.20;90.10;;;;;;5096474;28;20202;-67
2021/04/05 05:46:04;;;;;;;7.43;5.18;;;7.30;88.70;;;;;;5096208;28;20232;-67
2021/04/05 05:48:50;;;;;;;14.00;4.88;;;7.40;88.40;;;;;;5096316;28;20202;-67
2021/04/05 05:51:28;;;;;;;6.00;4.28;;;7.50;89.00;;;;;;5096369;28;20210;-67
2021/04/05 05:54:02;;;;;;;9.48;4.47;;;7.50;88.80;;;;;;5096399;28;20616;-67
2021/04/05 05:56:44;;;;;;;7.72;5.03;;;7.70;87.80;;;;;;5095828;28;20266;-67
2021/04/05 05:59:18;;;;;;;8.10;4.45;;;7.80;87.60;;;;;;5096925;28;20206;-67
2021/04/05 06:01:54;;;;;;;6.53;4.95;;;7.90;86.00;;;;;;5096114;28;20671;-67
2021/04/05 06:04:37;;;;;;;5.53;4.72;;;8.10;84.70;;;;;;5096228;28;20190;-67
2021/04/05 06:07:11;;;;;;;7.18;4.10;;;8.10;84.60;;;;;;5095504;28;20275;-67
2021/04/05 06:09:49;;;;;;;7.75;4.20;;;8.30;85.00;;;;;;5096077;28;20194;-67
2021/04/05 06:12:25;;;;;;;9.55;4.20;;;8.40;83.30;;;;;;5095782;28;20656;-66
2021/04/05 06:15:05;;;;;;;8.05;4.55;;;8.40;82.80;;;;;;5095882;28;20198;-66
2021/04/05 06:17:45;;;;;;;6.13;3.88;;;8.50;82.10;;;;;;5095374;28;20222;-67
2021/04/05 06:20:18;;;;;;;5.60;4.25;;;8.60;81.00;;;;;;5095857;28;20285;-66
2021/04/05 06:23:10;;;;;;;10.35;5.00;;;8.70;80.40;;;;;;5095730;28;20297;-67
2021/04/05 06:25:47;;;;;;;10.38;5.15;;;8.70;80.00;;;;;;5095315;28;20676;-67
2021/04/05 06:28:22;;;;;;;6.50;4.68;;;8.80;79.30;;;;;;5095203;28;20655;-67
2021/04/05 06:30:59;;;;;;;7.65;4.35;;;8.90;79.30;;;;;;5095451;28;20202;-67
2021/04/05 06:33:32;;;;;;;6.85;4.72;;;9.00;80.80;;;;;;5095595;28;20194;-67
2021/04/05 06:36:12;;;;;;;10.80;4.10;;;8.90;81.80;;;;;;5095230;28;20218;-66
2021/04/05 06:38:45;;;;;;;7.25;5.18;;;9.00;80.50;;;;;;5095394;28;20205;-66
2021/04/05 06:41:39;;;;;;;7.45;4.78;;;9.00;80.90;;;;;;5094710;28;20549;-67
2021/04/05 06:44:27;;;;;;;6.72;5.03;;;9.00;81.40;;;;;;5094892;28;20676;-67
2021/04/05 06:47:12;;;;;;;7.60;4.60;;;8.90;81.40;;;;;;5094754;28;20236;-66
2021/04/05 06:50:02;;;;;;;7.40;4.72;;;8.70;82.40;;;;;;5095233;28;20212;-67
2021/04/05 06:52:43;;;;;;;7.05;4.70;;;8.80;82.60;;;;;;5095135;28;20289;-67
2021/04/05 06:55:27;;;;;;;8.10;5.90;;;8.80;81.90;;;;;;5095130;28;20319;-67
2021/04/05 06:58:29;;;;;;;6.78;5.07;;;8.90;79.30;;;;;;5094888;28;20297;-67
2021/04/05 07:01:12;;;;;;;8.95;5.72;;;9.00;80.40;;;;;;5071455;28;20735;-67
2021/04/05 07:03:57;;;;;;;9.88;4.00;;;9.10;81.10;;;;;;5094959;28;20198;-67
2021/04/05 07:06:41;;;;;;;6.57;3.83;;;9.20;77.60;;;;;;5094511;28;20248;-67
2021/04/05 07:09:16;;;;;;;6.00;4.43;;;9.40;78.00;;;;;;5093657;28;20256;-67
2021/04/05 07:12:00;;;;;;;6.53;4.50;;;9.50;77.00;;;;;;5094578;28;20253;-67
2021/04/05 07:14:37;;;;;;;5.80;3.90;;;9.70;75.80;;;;;;5094772;28;20210;-67
2021/04/05 07:17:13;;;;;;;6.72;4.13;;;9.90;75.50;;;;;;5094661;28;20229;-67
2021/04/05 07:20:00;;;;;;;5.18;3.55;;;10.00;72.60;;;;;;5094684;28;20238;-67
2021/04/05 07:22:49;;;;;;;5.30;4.15;;;10.10;72.20;;;;;;5094318;28;20240;-67
2021/04/05 07:25:21;;;;;;;7.00;3.80;;;10.10;72.00;;;;;;5094551;28;20206;-67
2021/04/05 07:27:57;;;;;;;7.57;4.97;;;10.30;72.10;;;;;;5094352;28;20229;-67
2021/04/05 07:30:31;;;;;;;6.13;4.35;;;10.40;71.10;;;;;;5094426;28;20664;-67
2021/04/05 07:33:13;;;;;;;7.90;5.22;;;10.60;72.10;;;;;;5094512;28;20296;-67
2021/04/05 07:35:47;;;;;;;8.75;5.10;;;10.70;72.10;;;;;;5094191;28;20268;-67
2021/04/05 07:38:23;;;;;;;6.57;4.45;;;10.70;71.80;;;;;;5094275;28;20288;-67
2021/04/05 07:40:56;;;;;;;7.03;3.80;;;10.70;72.00;;;;;;5094294;28;20196;-67
2021/04/05 07:43:35;;;;;;;6.18;3.90;;;10.70;69.80;;;;;;5093955;28;20202;-68
2021/04/05 07:46:20;;;;;;;9.68;5.18;;;10.80;70.50;;;;;;5093692;28;20229;-67
2021/04/05 07:48:54;;;;;;;7.25;4.18;;;10.90;70.90;;;;;;5094285;28;20201;-67
2021/04/05 07:51:25;;;;;;;5.10;3.70;;;11.10;69.10;;;;;;5093346;28;20297;-67
2021/04/05 07:53:57;;;;;;;7.47;4.38;;;11.20;69.10;;;;;;5093687;28;20690;-67
2021/04/05 07:56:29;;;;;;;8.02;4.40;;;11.30;67.50;;;;;;5093780;28;20222;-67
2021/04/05 07:59:09;;;;;;;5.78;4.50;;;11.30;67.50;;;;;;5094023;28;20212;-67
2021/04/05 08:01:43;;;;;;;6.63;3.53;;;11.40;66.60;;;;;;5094894;28;20194;-66
2021/04/05 08:04:19;;;;;;;6.38;3.65;;;11.50;66.60;;;;;;5093955;28;20218;-67
2021/04/05 08:06:56;;;;;;;5.43;3.55;;;11.60;65.90;;;;;;5093604;28;20313;-67
2021/04/05 08:09:26;;;;;;;6.97;4.15;;;11.60;65.90;;;;;;5093869;28;20296;-67
2021/04/05 08:12:23;;;;;;;5.03;3.90;;;11.50;66.00;;;;;;5094046;28;20294;-67
2021/04/05 08:15:12;;;;;;;9.82;4.10;;;11.60;65.70;;;;;;5093681;28;20206;-67
2021/04/05 08:17:51;;;;;;;9.32;4.10;;;11.60;65.70;;;;;;5093613;28;20308;-67
2021/04/05 08:20:26;;;;;;;4.95;3.42;;;11.80;65.40;;;;;;5093779;28;20623;-67
2021/04/05 08:22:58;;;;;;;7.90;4.32;;;11.90;65.40;;;;;;5093919;28;20288;-67
2021/04/05 08:25:32;;;;;;;5.20;3.65;;;12.00;65.20;;;;;;5093637;28;20587;-67
2021/04/05 08:28:11;;;;;;;5.20;3.40;;;12.20;64.50;;;;;;5093579;28;20607;-67
2021/04/05 08:30:48;;;;;;;6.32;3.78;;;12.50;63.80;;;;;;5093761;28;20186;-67
2021/04/05 08:33:28;;;;;;;7.50;4.53;;;12.80;64.10;;;;;;5093657;28;20233;-67
2021/04/05 08:36:10;;;;;;;7.05;4.00;;;13.10;63.20;;;;;;5093225;28;20263;-67
2021/04/05 08:38:53;;;;;;;4.82;3.90;;;13.30;63.40;;;;;;5093426;28;20235;-67
2021/04/05 08:41:32;;;;;;;5.13;2.80;;;13.50;62.10;;;;;;5093119;28;20210;-67
2021/04/05 08:44:03;;;;;;;4.07;2.83;;;13.40;59.30;;;;;;5093725;28;20300;-67
2021/04/05 08:46:49;;;;;;;7.75;3.42;;;13.30;59.30;;;;;;5092983;28;20228;-67
2021/04/05 08:49:19;;;;;;;5.22;3.55;;;13.50;60.20;;;;;;5093504;28;20288;-67
2021/04/05 08:51:54;;;;;;;3.30;2.30;;;13.60;60.20;;;;;;5093394;28;20212;-67
2021/04/05 08:54:26;;;;;;;4.20;2.30;;;13.70;58.90;;;;;;5093480;28;20209;-67
2021/04/05 08:57:01;;;;;;;2.60;1.90;;;13.70;56.30;;;;;;5093003;28;20218;-66
2021/04/05 08:59:35;;;;;;;3.38;2.30;;;13.60;54.30;;;;;;5093539;28;20208;-67
2021/04/05 09:02:16;;;;;;;3.17;1.88;;;13.30;51.80;;;;;;5093505;28;20210;-67
2021/04/05 09:04:45;;;;;;;6.95;2.22;;;13.30;51.70;;;;;;5096762;28;20205;-67
2021/04/05 09:07:30;;;;;;;4.57;2.90;;;13.30;52.30;;;;;;5096975;28;20226;-66
2021/04/05 09:10:02;;;;;;;3.53;2.15;;;13.20;52.50;;;;;;5097126;28;20212;-67
2021/04/05 09:12:29;;;;;;;4.03;1.90;;;13.10;52.30;;;;;;5097212;28;20240;-67
2021/04/05 09:15:15;;;;;;;4.10;2.33;;;13.10;52.70;;;;;;5096877;28;20259;-67
2021/04/05 09:18:00;;;;;;;5.88;2.45;;;13.20;53.00;;;;;;5096748;28;20313;-66
2021/04/05 09:21:02;;;;;;;5.32;2.42;;;13.30;53.60;;;;;;5097014;28;20682;-67
2021/04/05 09:24:01;;;;;;;4.40;2.45;;;13.40;53.80;;;;;;5094326;28;20229;-67
2021/04/05 09:26:47;;;;;;;9.98;2.80;;;13.40;53.00;;;;;;5085099;28;20238;-66
2021/04/05 09:29:26;;;;;;;3.92;2.72;;;13.30;53.10;;;;;;5096838;28;20206;-67
2021/04/05 09:32:22;;;;;;;4.70;2.92;;;13.20;53.10;;;;;;5096834;28;20229;-67
2021/04/05 09:35:28;;;;;;;3.85;2.35;;;13.10;54.00;;;;;;5096832;28;20327;-67
2021/04/05 09:38:54;;;;;;;4.90;2.97;;;12.80;53.80;;;;;;5090982;28;20660;-66
2021/04/05 09:41:55;;;;;;;4.03;2.13;;;12.80;54.10;;;;;;5060125;28;20212;-67
2021/04/05 09:44:54;;;;;;;4.15;2.67;;;12.90;53.70;;;;;;5096517;28;20217;-67
2021/04/05 09:47:36;;;;;;;3.33;2.00;;;13.10;53.30;;;;;;5096493;28;20222;-67
2021/04/05 09:50:25;;;;;;;6.30;2.55;;;13.10;52.90;;;;;;5096410;28;20201;-67
2021/04/05 09:53:24;;;;;;;4.43;2.50;;;13.20;52.70;;;;;;5096496;28;20218;-67
2021/04/05 09:55:58;;;;;;;2.83;2.50;;;13.30;52.40;;;;;;5080469;28;20622;-67
2021/04/05 09:58:28;;;;;;;3.72;2.67;;;13.30;51.90;;;;;;5096269;28;20209;-67
2021/04/05 10:00:57;;;;;;;4.95;2.20;;;13.40;51.40;;;;;;5095941;28;20205;-67
2021/04/05 10:03:25;;;;;;;4.57;2.40;;;13.40;50.70;;;;;;5096104;28;20202;-67
2021/04/05 10:05:53;;;;;;;4.97;2.25;;;13.40;50.30;;;;;;5095794;28;20287;-67
2021/04/05 10:08:23;;;;;;;2.50;2.30;;;13.40;49.50;;;;;;5095862;28;20208;-67
2021/04/05 10:10:51;;;;;;;3.80;2.40;;;13.30;48.90;;;;;;5095687;28;20292;-67
2021/04/05 10:13:20;;;;;;;5.13;2.25;;;13.30;49.00;;;;;;5095720;28;20241;-67
2021/04/05 10:15:51;;;;;;;4.65;2.70;;;13.20;49.40;;;;;;5094724;28;20589;-67
2021/04/05 10:18:17;;;;;;;4.95;2.50;;;13.20;49.40;;;;;;5095688;28;20197;-67
2021/04/05 10:20:48;;;;;;;2.50;2.10;;;13.20;49.90;;;;;;5095807;28;20586;-67
2021/04/05 10:23:20;;;;;;;3.10;2.50;;;13.30;49.30;;;;;;5095710;28;20586;-67
2021/04/05 10:25:52;;;;;;;3.08;2.33;;;13.30;48.70;;;;;;5095312;28;20740;-67
2021/04/05 10:28:19;;;;;;;3.60;2.55;;;13.40;48.60;;;;;;5095461;28;20618;-67
2021/04/05 10:30:51;;;;;;;5.70;2.42;;;13.40;48.10;;;;;;5095389;28;20769;-67
2021/04/05 10:33:23;;;;;;;4.70;2.38;;;13.50;48.90;;;;;;5095503;28;20289;-67
2021/04/05 10:35:55;;;;;;;3.65;2.63;;;13.60;48.10;;;;;;5095500;28;20222;-66
2021/04/05 10:38:22;;;;;;;3.83;2.00;;;13.70;47.80;;;;;;5095529;28;20190;-67
2021/04/05 10:40:51;;;;;;;4.95;2.53;;;13.80;48.20;;;;;;5095495;28;20564;-67
2021/04/05 10:43:21;;;;;;;4.85;2.60;;;13.80;46.90;;;;;;5095174;28;20206;-67
2021/04/05 10:45:55;;;;;;;3.75;2.10;;;13.90;47.60;;;;;;5095288;28;20317;-67
2021/04/05 10:48:26;;;;;;;7.40;3.78;;;13.90;45.80;;;;;;5095249;28;20575;-67
2021/04/05 10:50:57;;;;;;;7.78;3.28;;;13.90;46.50;;;;;;5094970;28;20202;-67
2021/04/05 10:53:26;;;;;;;3.65;2.50;;;13.90;45.80;;;;;;5095200;28;20206;-67
2021/04/05 10:55:55;;;;;;;4.00;2.70;;;14.00;44.90;;;;;;5094836;28;20214;-67
2021/04/05 10:58:28;;;;;;;2.60;2.03;;;14.10;45.40;;;;;;5094932;28;20681;-67
2021/04/05 11:00:57;;;;;;;6.03;2.42;;;14.20;45.20;;;;;;5094918;28;20204;-67
2021/04/05 11:03:27;;;;;;;5.35;2.80;;;14.20;44.50;;;;;;5094943;28;20202;-67
2021/04/05 11:05:58;;;;;;;4.97;2.53;;;14.20;44.60;;;;;;5094659;28;20625;-67
2021/04/05 11:08:28;;;;;;;4.45;2.60;;;14.10;44.70;;;;;;5094944;28;20609;-67
2021/04/05 11:11:02;;;;;;;4.22;2.60;;;14.00;44.30;;;;;;5094760;28;20343;-67
2021/04/05 11:13:29;;;;;;;4.22;2.40;;;14.00;44.30;;;;;;5094731;28;20305;-67
2021/04/05 11:15:57;;;;;;;2.25;1.90;;;13.90;44.20;;;;;;5094656;28;20305;-67
2021/04/05 11:18:26;;;;;;;2.70;1.80;;;13.90;44.50;;;;;;5094651;28;20655;-67
2021/04/05 11:20:57;;;;;;;5.05;2.53;;;13.90;45.30;;;;;;5094487;28;20293;-67
2021/04/05 11:23:24;;;;;;;3.95;2.33;;;13.90;44.80;;;;;;5094614;28;20202;-67
2021/04/05 11:25:58;;;;;;;3.78;2.45;;;14.00;45.40;;;;;;5093954;28;20234;-67
2021/04/05 11:28:31;;;;;;;8.52;4.55;;;14.10;45.80;;;;;;5094227;28;20293;-67
2021/04/05 11:31:02;;;;;;;4.65;2.67;;;14.20;45.60;;;;;;5094455;28;20210;-67
2021/04/05 11:33:31;;;;;;;3.63;2.97;;;14.10;47.10;;;;;;5094468;28;20292;-67
2021/04/05 11:35:59;;;;;;;4.60;2.60;;;14.30;46.80;;;;;;5094146;28;20228;-67
2021/04/05 11:38:26;;;;;;;7.18;3.10;;;14.10;47.80;;;;;;5094328;28;20197;-67
2021/04/05 11:40:59;;;;;;;3.70;3.20;;;14.10;48.30;;;;;;5094351;28;20227;-67
2021/04/05 11:43:30;;;;;;;6.53;3.70;;;14.00;49.70;;;;;;5094151;28;20293;-67
2021/04/05 11:46:04;;;;;;;5.75;3.33;;;13.90;50.50;;;;;;5093865;28;20704;-67
2021/04/05 11:48:30;;;;;;;5.45;3.03;;;13.80;50.90;;;;;;5094204;28;20206;-67
2021/04/05 11:50:57;;;;;;;6.30;3.97;;;13.80;51.30;;;;;;5094008;28;20664;-67
2021/04/05 11:53:31;;;;;;;6.60;3.30;;;13.90;51.60;;;;;;5094004;28;20206;-67
2021/04/05 11:56:10;;;;;;;7.80;4.03;;;14.00;51.60;;;;;;5093773;28;20217;-67
2021/04/05 11:58:40;;;;;;;6.05;4.22;;;14.00;52.10;;;;;;5094005;28;20727;-67
2021/04/05 12:01:16;;;;;;;8.88;4.85;;;13.60;53.10;;;;;;5093923;28;20296;-67
2021/04/05 12:03:48;;;;;;;11.65;4.30;;;13.60;53.20;;;;;;5093920;28;20249;-67
2021/04/05 12:06:20;;;;;;;10.43;4.68;;;13.30;53.70;;;;;;5093580;28;20630;-69
2021/04/05 12:08:51;;;;;;;9.98;4.82;;;13.20;54.20;;;;;;5093929;28;20311;-67
2021/04/05 12:11:21;;;;;;;7.03;4.13;;;13.30;54.30;;;;;;5093848;28;20206;-67
2021/04/05 12:13:51;;;;;;;6.90;4.65;;;13.20;54.30;;;;;;5093797;28;20206;-66
2021/04/05 12:16:24;;;;;;;7.82;4.53;;;13.20;54.50;;;;;;5093610;28;20304;-67
2021/04/05 12:18:53;;;;;;;10.10;5.80;;;13.30;55.70;;;;;;5093570;28;20721;-67
2021/04/05 12:21:25;;;;;;;9.18;4.55;;;13.30;54.80;;;;;;5093916;28;20237;-67
2021/04/05 12:23:55;;;;;;;6.90;4.30;;;13.00;55.20;;;;;;5093689;28;20297;-66
2021/04/05 12:26:25;;;;;;;9.77;5.72;;;12.80;56.30;;;;;;5093280;28;20599;-67
2021/04/05 12:28:53;;;;;;;13.35;5.47;;;12.70;57.10;;;;;;5093380;28;20209;-68
2021/04/05 12:31:25;;;;;;;13.63;6.40;;;12.60;57.70;;;;;;5093678;28;20241;-66
2021/04/05 12:33:54;;;;;;;11.27;5.53;;;12.40;58.70;;;;;;5093643;28;20272;-66
2021/04/05 12:36:20;;;;;;;6.90;4.90;;;12.40;59.70;;;;;;5093187;28;20218;-67
2021/04/05 12:38:51;;;;;;;9.30;6.07;;;12.60;60.50;;;;;;5095426;28;20210;-67
2021/04/05 12:41:19;;;;;;;12.00;6.30;;;12.50;60.60;;;;;;5097487;28;20237;-67
2021/04/05 12:43:51;;;;;;;16.40;6.40;;;12.60;60.70;;;;;;5097494;28;20293;-66
2021/04/05 12:46:19;;;;;;;12.43;5.38;;;12.60;61.10;;;;;;5097248;28;20249;-66
2021/04/05 12:48:47;;;;;;;9.48;6.03;;;12.50;62.20;;;;;;5097336;28;20664;-66
2021/04/05 12:51:16;;;;;;;11.63;6.10;;;12.50;62.80;;;;;;5097435;28;20210;-66
2021/04/05 12:53:45;;;;;;;20.13;7.68;;;12.50;63.10;;;;;;5097383;28;20210;-67
2021/04/05 12:56:18;;;;;;;9.68;5.68;;;12.50;63.60;;;;;;5097108;28;20224;-67
2021/04/05 12:58:51;;;;;;;10.73;6.85;;;12.40;64.00;;;;;;5097344;28;20344;-67
2021/04/05 13:01:24;;;;;;;10.90;6.53;;;12.40;64.90;;;;;;5097445;28;20281;-67
2021/04/05 13:03:52;;;;;;;9.55;6.55;;;12.30;65.90;;;;;;5097157;28;20206;-67
2021/04/05 13:06:23;;;;;;;11.23;6.15;;;12.30;65.50;;;;;;5096934;28;20226;-69
2021/04/05 13:08:54;;;;;;;10.35;5.80;;;12.20;66.40;;;;;;5097191;28;20208;-67
2021/04/05 13:11:23;;;;;;;12.15;6.70;;;12.30;66.00;;;;;;5097207;28;20190;-66
2021/04/05 13:13:57;;;;;;;11.85;5.60;;;12.30;65.20;;;;;;5097503;28;20545;-66
2021/04/05 13:16:28;;;;;;;11.30;5.90;;;12.30;65.50;;;;;;5096818;28;20278;-66